sensor_id;sensor_type;location;lat;lon;timestamp;pressure;altitude;pressure_sealevel;temperature;humidity
8049;BME280;20935;42.660;23.342;2023-01-29T00:00:04;94853.72;;;0.80;100.00
8049;BME280;20935;42.660;23.342;2023-01-29T00:02:53;94846.25;;;1.18;100.00
8049;BME280;20935;42.660;23.342;2023-01-29T00:05:39;94847.91;;;1.11;100.00
8049;BME280;20935;42.660;23.342;2023-01-29T00:08:24;94856.59;;;1.11;100.00
8049;BME280;20935;42.660;23.342;2023-01-29T00:11:10;94853.41;;;1.18;100.00
8049;BME280;20935;42.660;23.342;2023-01-29T00:13:59;94863.84;;;1.26;100.00
8049;BME280;20935;42.660;23.342;2023-01-29T00:16:45;94859.09;;;1.08;100.00
8049;BME280;20935;42.660;23.342;2023-01-29T00:19:30;94870.88;;;1.22;100.00
8049;BME280;20935;42.660;23.342;2023-01-29T00:22:15;94863.94;;;1.06;100.00
8049;BME280;20935;42.660;23.342;2023-01-29T00:25:01;94859.88;;;0.96;100.00
8049;BME280;20935;42.660;23.342;2023-01-29T00:27:46;94855.47;;;0.88;100.00
8049;BME280;20935;42.660;23.342;2023-01-29T00:30:34;94872.28;;;1.08;100.00
8049;BME280;20935;42.660;23.342;2023-01-29T00:33:20;94870.09;;;1.10;100.00
8049;BME280;20935;42.660;23.342;2023-01-29T00:36:08;94863.84;;;1.26;100.00
8049;BME280;20935;42.660;23.342;2023-01-29T00:38:55;94862.47;;;0.72;100.00
8049;BME280;20935;42.660;23.342;2023-01-29T00:41:41;94872.53;;;1.03;100.00
8049;BME280;20935;42.660;23.342;2023-01-29T00:44:45;94866.03;;;1.12;100.00
8049;BME280;20935;42.660;23.342;2023-01-29T00:47:43;94869.66;;;1.08;100.00
8049;BME280;20935;42.660;23.342;2023-01-29T00:50:29;94871.28;;;1.00;100.00
8049;BME280;20935;42.660;23.342;2023-01-29T00:53:15;94861.63;;;0.92;100.00
8049;BME280;20935;42.660;23.342;2023-01-29T00:56:00;94862.97;;;0.98;100.00
8049;BME280;20935;42.660;23.342;2023-01-29T00:58:46;94864.59;;;0.90;100.00
8049;BME280;20935;42.660;23.342;2023-01-29T01:01:34;94864.81;;;0.85;100.00
8049;BME280;20935;42.660;23.342;2023-01-29T01:04:41;94866.00;;;0.64;100.00
8049;BME280;20935;42.660;23.342;2023-01-29T01:07:26;94853.72;;;0.80;100.00
8049;BME280;20935;42.660;23.342;2023-01-29T01:10:14;94865.25;;;0.75;100.00
8049;BME280;20935;42.660;23.342;2023-01-29T01:13:06;94865.56;;;0.62;100.00
8049;BME280;20935;42.660;23.342;2023-01-29T01:15:51;94861.63;;;0.92;100.00
8049;BME280;20935;42.660;23.342;2023-01-29T01:18:37;94866.69;;;0.97;100.00
8049;BME280;20935;42.660;23.342;2023-01-29T01:21:24;94855.16;;;0.89;100.00
8049;BME280;20935;42.660;23.342;2023-01-29T01:24:10;94862.94;;;0.86;100.00
8049;BME280;20935;42.660;23.342;2023-01-29T01:26:59;94851.75;;;1.13;100.00
8049;BME280;20935;42.660;23.342;2023-01-29T01:29:44;94853.50;;;0.97;100.00
8049;BME280;20935;42.660;23.342;2023-01-29T01:32:30;94848.75;;;0.66;100.00
8049;BME280;20935;42.660;23.342;2023-01-29T01:35:16;94853.06;;;0.83;100.00
8049;BME280;20935;42.660;23.342;2023-01-29T01:38:03;94853.47;;;0.73;100.00
8049;BME280;20935;42.660;23.342;2023-01-29T01:40:48;94854.03;;;0.66;100.00
8049;BME280;20935;42.660;23.342;2023-01-29T01:43:50;94858.75;;;0.73;100.00
8049;BME280;20935;42.660;23.342;2023-01-29T01:46:36;94862.81;;;0.70;100.00
8049;BME280;20935;42.660;23.342;2023-01-29T01:49:22;94861.41;;;0.85;100.00
8049;BME280;20935;42.660;23.342;2023-01-29T01:52:09;94862.47;;;0.72;100.00
8049;BME280;20935;42.660;23.342;2023-01-29T01:54:58;94873.38;;;0.82;100.00
8049;BME280;20935;42.660;23.342;2023-01-29T01:57:46;94871.41;;;0.79;100.00
8049;BME280;20935;42.660;23.342;2023-01-29T02:00:36;94871.28;;;0.64;100.00
8049;BME280;20935;42.660;23.342;2023-01-29T02:03:23;94868.66;;;0.64;100.00
8049;BME280;20935;42.660;23.342;2023-01-29T02:06:30;94884.44;;;0.76;100.00
8049;BME280;20935;42.660;23.342;2023-01-29T02:09:39;94874.78;;;0.80;100.00
8049;BME280;20935;42.660;23.342;2023-01-29T02:12:27;94873.38;;;0.70;100.00
8049;BME280;20935;42.660;23.342;2023-01-29T02:15:14;94873.16;;;0.75;100.00
8049;BME280;20935;42.660;23.342;2023-01-29T02:17:59;94873.72;;;0.93;100.00
8049;BME280;20935;42.660;23.342;2023-01-29T02:20:50;94869.69;;;0.51;100.00
8049;BME280;20935;42.660;23.342;2023-01-29T02:23:55;94879.94;;;0.76;100.00
8049;BME280;20935;42.660;23.342;2023-01-29T02:27:01;94877.84;;;0.70;100.00
8049;BME280;20935;42.660;23.342;2023-01-29T02:29:55;94882.69;;;0.56;100.00
8049;BME280;20935;42.660;23.342;2023-01-29T02:32:50;94879.16;;;0.52;100.00
8049;BME280;20935;42.660;23.342;2023-01-29T02:35:44;94879.16;;;0.52;100.00
8049;BME280;20935;42.660;23.342;2023-01-29T02:38:37;94889.41;;;0.77;100.00
8049;BME280;20935;42.660;23.342;2023-01-29T02:41:30;94889.16;;;0.58;100.00
8049;BME280;20935;42.660;23.342;2023-01-29T02:44:22;94888.22;;;0.42;100.00
8049;BME280;20935;42.660;23.342;2023-01-29T02:47:16;94898.59;;;0.59;100.00
8049;BME280;20935;42.660;23.342;2023-01-29T02:50:07;94914.94;;;0.65;100.00
8049;BME280;20935;42.660;23.342;2023-01-29T02:52:59;94902.00;;;0.72;100.00
8049;BME280;20935;42.660;23.342;2023-01-29T02:55:50;94896.25;;;0.90;100.00
8049;BME280;20935;42.660;23.342;2023-01-29T02:58:41;94892.69;;;0.74;100.00
8049;BME280;20935;42.660;23.342;2023-01-29T03:01:30;94900.59;;;0.74;100.00
8049;BME280;20935;42.660;23.342;2023-01-29T03:04:21;94893.91;;;0.77;100.00
8049;BME280;20935;42.660;23.342;2023-01-29T03:07:12;94892.16;;;0.81;100.00
8049;BME280;20935;42.660;23.342;2023-01-29T03:10:23;94900.56;;;0.62;100.00
8049;BME280;20935;42.660;23.342;2023-01-29T03:13:14;94895.09;;;0.67;100.00
8049;BME280;20935;42.660;23.342;2023-01-29T03:16:03;94890.81;;;0.63;100.00
8049;BME280;20935;42.660;23.342;2023-01-29T03:18:54;94900.00;;;0.57;100.00
8049;BME280;20935;42.660;23.342;2023-01-29T03:21:47;94904.00;;;0.75;100.00
8049;BME280;20935;42.660;23.342;2023-01-29T03:24:45;94908.47;;;0.62;100.00
8049;BME280;20935;42.660;23.342;2023-01-29T03:27:52;94911.91;;;0.75;100.00
8049;BME280;20935;42.660;23.342;2023-01-29T03:30:57;94906.72;;;0.66;100.00
8049;BME280;20935;42.660;23.342;2023-01-29T03:34:07;94901.63;;;0.94;100.00
8049;BME280;20935;42.660;23.342;2023-01-29T03:37:02;94911.28;;;0.90;100.00
8049;BME280;20935;42.660;23.342;2023-01-29T03:39:50;94901.81;;;0.89;100.00
8049;BME280;20935;42.660;23.342;2023-01-29T03:43:06;94911.19;;;0.99;100.00
8049;BME280;20935;42.660;23.342;2023-01-29T03:45:59;94909.53;;;0.94;100.00
8049;BME280;20935;42.660;23.342;2023-01-29T03:48:52;94897.22;;;0.86;100.00
8049;BME280;20935;42.660;23.342;2023-01-29T03:51:44;94891.25;;;0.65;100.00
8049;BME280;20935;42.660;23.342;2023-01-29T03:54:41;94906.38;;;0.68;100.00
8049;BME280;20935;42.660;23.342;2023-01-29T03:57:32;94925.28;;;0.70;100.00
8049;BME280;20935;42.660;23.342;2023-01-29T04:00:22;94905.72;;;0.59;100.00
8049;BME280;20935;42.660;23.342;2023-01-29T04:03:17;94903.22;;;0.62;100.00
8049;BME280;20935;42.660;23.342;2023-01-29T04:06:10;94907.03;;;0.65;100.00
8049;BME280;20935;42.660;23.342;2023-01-29T04:09:02;94910.06;;;0.75;100.00
8049;BME280;20935;42.660;23.342;2023-01-29T04:11:54;94909.81;;;0.80;100.00
8049;BME280;20935;42.660;23.342;2023-01-29T04:14:43;94912.47;;;0.92;100.00
8049;BME280;20935;42.660;23.342;2023-01-29T04:17:32;94910.41;;;0.86;100.00
8049;BME280;20935;42.660;23.342;2023-01-29T04:20:19;94914.34;;;0.92;100.00
8049;BME280;20935;42.660;23.342;2023-01-29T04:23:06;94913.16;;;0.57;100.00
8049;BME280;20935;42.660;23.342;2023-01-29T04:26:17;94913.94;;;0.57;100.00
8049;BME280;20935;42.660;23.342;2023-01-29T04:29:17;94914.38;;;0.47;100.00
8049;BME280;20935;42.660;23.342;2023-01-29T04:32:13;94906.38;;;0.56;100.00
8049;BME280;20935;42.660;23.342;2023-01-29T04:35:09;94913.94;;;0.57;100.00
8049;BME280;20935;42.660;23.342;2023-01-29T04:38:08;94917.25;;;0.54;100.00
8049;BME280;20935;42.660;23.342;2023-01-29T04:41:01;94924.59;;;0.61;100.00
8049;BME280;20935;42.660;23.342;2023-01-29T04:43:58;94916.78;;;0.52;100.00
8049;BME280;20935;42.660;23.342;2023-01-29T04:46:51;94919.03;;;0.74;100.00
8049;BME280;20935;42.660;23.342;2023-01-29T04:49:46;94927.97;;;0.82;100.00
8049;BME280;20935;42.660;23.342;2023-01-29T04:52:41;94924.09;;;0.67;100.00
8049;BME280;20935;42.660;23.342;2023-01-29T04:55:32;94920.09;;;0.61;100.00
8049;BME280;20935;42.660;23.342;2023-01-29T04:58:25;94923.38;;;0.91;100.00
8049;BME280;20935;42.660;23.342;2023-01-29T05:01:13;94925.72;;;0.72;100.00
8049;BME280;20935;42.660;23.342;2023-01-29T05:04:04;94925.22;;;0.78;100.00
8049;BME280;20935;42.660;23.342;2023-01-29T05:06:51;94927.16;;;0.69;100.00
8049;BME280;20935;42.660;23.342;2023-01-29T05:09:38;94927.72;;;0.42;100.00
8049;BME280;20935;42.660;23.342;2023-01-29T05:12:25;94934.09;;;0.74;100.00
8049;BME280;20935;42.660;23.342;2023-01-29T05:15:16;94933.97;;;0.70;100.00
8049;BME280;20935;42.660;23.342;2023-01-29T05:18:03;94938.28;;;0.75;100.00
8049;BME280;20935;42.660;23.342;2023-01-29T05:20:54;94939.97;;;0.59;100.00
8049;BME280;20935;42.660;23.342;2023-01-29T05:23:40;94935.59;;;0.63;100.00
8049;BME280;20935;42.660;23.342;2023-01-29T05:26:43;94935.28;;;0.76;100.00
8049;BME280;20935;42.660;23.342;2023-01-29T05:29:47;94934.28;;;0.69;100.00
8049;BME280;20935;42.660;23.342;2023-01-29T05:32:33;94947.91;;;0.71;100.00
8049;BME280;20935;42.660;23.342;2023-01-29T05:35:18;94949.00;;;0.70;100.00
8049;BME280;20935;42.660;23.342;2023-01-29T05:38:05;94953.81;;;0.56;100.00
8049;BME280;20935;42.660;23.342;2023-01-29T05:40:50;94948.88;;;0.66;100.00
8049;BME280;20935;42.660;23.342;2023-01-29T05:43:36;94953.66;;;0.52;100.00
8049;BME280;20935;42.660;23.342;2023-01-29T05:46:22;94958.03;;;0.48;100.00
8049;BME280;20935;42.660;23.342;2023-01-29T05:49:08;94956.06;;;0.45;100.00
8049;BME280;20935;42.660;23.342;2023-01-29T05:51:53;94955.19;;;0.53;100.00
8049;BME280;20935;42.660;23.342;2023-01-29T05:54:40;94957.09;;;0.65;100.00
8049;BME280;20935;42.660;23.342;2023-01-29T05:57:25;94960.28;;;0.91;100.00
8049;BME280;20935;42.660;23.342;2023-01-29T06:00:12;94956.19;;;0.81;100.00
8049;BME280;20935;42.660;23.342;2023-01-29T06:02:58;94966.13;;;0.64;100.00
8049;BME280;20935;42.660;23.342;2023-01-29T06:05:44;94964.81;;;0.70;100.00
8049;BME280;20935;42.660;23.342;2023-01-29T06:08:29;94973.53;;;0.82;100.00
8049;BME280;20935;42.660;23.342;2023-01-29T06:11:16;94972.44;;;0.83;100.00
8049;BME280;20935;42.660;23.342;2023-01-29T06:14:02;94978.31;;;0.68;100.00
8049;BME280;20935;42.660;23.342;2023-01-29T06:16:47;94982.72;;;0.43;100.00
8049;BME280;20935;42.660;23.342;2023-01-29T06:19:33;94978.13;;;0.73;100.00
8049;BME280;20935;42.660;23.342;2023-01-29T06:22:18;94982.28;;;0.74;100.00
8049;BME280;20935;42.660;23.342;2023-01-29T06:25:05;94994.97;;;0.60;100.00
8049;BME280;20935;42.660;23.342;2023-01-29T06:27:52;94996.47;;;0.82;100.00
8049;BME280;20935;42.660;23.342;2023-01-29T06:30:38;95001.41;;;0.71;100.00
8049;BME280;20935;42.660;23.342;2023-01-29T06:33:26;95000.56;;;0.79;100.00
8049;BME280;20935;42.660;23.342;2023-01-29T06:36:12;95001.22;;;0.56;100.00
8049;BME280;20935;42.660;23.342;2023-01-29T06:38:57;95010.34;;;0.91;100.00
8049;BME280;20935;42.660;23.342;2023-01-29T06:41:43;95005.16;;;0.82;100.00
8049;BME280;20935;42.660;23.342;2023-01-29T06:44:31;95005.16;;;0.82;100.00
8049;BME280;20935;42.660;23.342;2023-01-29T06:47:16;95002.69;;;0.98;100.00
8049;BME280;20935;42.660;23.342;2023-01-29T06:50:02;95014.78;;;0.99;100.00
8049;BME280;20935;42.660;23.342;2023-01-29T06:52:48;95022.59;;;1.20;100.00
8049;BME280;20935;42.660;23.342;2023-01-29T06:55:34;95023.22;;;1.05;100.00
8049;BME280;20935;42.660;23.342;2023-01-29T06:58:19;95026.97;;;1.04;100.00
8049;BME280;20935;42.660;23.342;2023-01-29T07:01:08;95025.38;;;1.23;100.00
8049;BME280;20935;42.660;23.342;2023-01-29T07:03:56;95029.34;;;1.29;100.00
8049;BME280;20935;42.660;23.342;2023-01-29T07:06:42;95029.34;;;-143.53;100.00
8049;BME280;20935;42.660;23.342;2023-01-29T07:09:27;95029.97;;;1.14;100.00
8049;BME280;20935;42.660;23.342;2023-01-29T07:12:12;95032.66;;;1.26;100.00
8049;BME280;20935;42.660;23.342;2023-01-29T07:14:59;95047.78;;;1.17;100.00
8049;BME280;20935;42.660;23.342;2023-01-29T07:17:56;95046.91;;;1.25;100.00
8049;BME280;20935;42.660;23.342;2023-01-29T07:20:43;95043.75;;;1.44;100.00
8049;BME280;20935;42.660;23.342;2023-01-29T07:23:29;95044.06;;;1.18;100.00
8049;BME280;20935;42.660;23.342;2023-01-29T07:26:14;95046.25;;;1.28;100.00
8049;BME280;20935;42.660;23.342;2023-01-29T07:28:59;95049.75;;;1.20;100.00
8049;BME280;20935;42.660;23.342;2023-01-29T07:31:45;95054.13;;;1.49;100.00
8049;BME280;20935;42.660;23.342;2023-01-29T07:34:32;95065.13;;;1.63;100.00
8049;BME280;20935;42.660;23.342;2023-01-29T07:37:17;95061.28;;;1.61;100.00
8049;BME280;20935;42.660;23.342;2023-01-29T07:40:03;95053.34;;;1.49;100.00
8049;BME280;20935;42.660;23.342;2023-01-29T07:42:57;95055.28;;;1.27;100.00
8049;BME280;20935;42.660;23.342;2023-01-29T07:45:42;95058.09;;;1.55;100.00
8049;BME280;20935;42.660;23.342;2023-01-29T07:48:28;95058.38;;;1.41;100.00
8049;BME280;20935;42.660;23.342;2023-01-29T07:51:15;95059.31;;;1.70;100.00
8049;BME280;20935;42.660;23.342;2023-01-29T07:54:01;95061.06;;;1.66;100.00
8049;BME280;20935;42.660;23.342;2023-01-29T07:56:47;95068.66;;;1.67;100.00
8049;BME280;20935;42.660;23.342;2023-01-29T07:59:32;95063.03;;;1.69;100.00
8049;BME280;20935;42.660;23.342;2023-01-29T08:02:17;95068.91;;;1.74;100.00
8049;BME280;20935;42.660;23.342;2023-01-29T08:05:03;95071.06;;;1.60;100.00
8049;BME280;20935;42.660;23.342;2023-01-29T08:07:53;95070.53;;;1.67;100.00
8049;BME280;20935;42.660;23.342;2023-01-29T08:10:39;95071.41;;;1.71;100.00
8049;BME280;20935;42.660;23.342;2023-01-29T08:13:24;95067.75;;;1.51;100.00
8049;BME280;20935;42.660;23.342;2023-01-29T08:16:10;95074.78;;;1.47;100.00
8049;BME280;20935;42.660;23.342;2023-01-29T08:18:56;95075.84;;;1.34;100.00
8049;BME280;20935;42.660;23.342;2023-01-29T08:21:42;95076.66;;;1.14;100.00
8049;BME280;20935;42.660;23.342;2023-01-29T08:24:29;95082.19;;;1.21;100.00
8049;BME280;20935;42.660;23.342;2023-01-29T08:27:15;95078.81;;;1.32;100.00
8049;BME280;20935;42.660;23.342;2023-01-29T08:30:01;95087.91;;;1.68;100.00
8049;BME280;20935;42.660;23.342;2023-01-29T08:32:46;95091.16;;;1.53;100.00
8049;BME280;20935;42.660;23.342;2023-01-29T08:35:31;95087.25;;;1.71;100.00
8049;BME280;20935;42.660;23.342;2023-01-29T08:38:17;95083.72;;;1.67;100.00
8049;BME280;20935;42.660;23.342;2023-01-29T08:41:04;95095.47;;;1.57;100.00
8049;BME280;20935;42.660;23.342;2023-01-29T08:43:50;95097.31;;;1.45;100.00
8049;BME280;20935;42.660;23.342;2023-01-29T08:46:36;95101.56;;;1.37;100.00
8049;BME280;20935;42.660;23.342;2023-01-29T08:49:23;95093.41;;;1.63;100.00
8049;BME280;20935;42.660;23.342;2023-01-29T08:52:09;95104.38;;;1.65;100.00
8049;BME280;20935;42.660;23.342;2023-01-29T08:54:54;95111.16;;;1.86;100.00
8049;BME280;20935;42.660;23.342;2023-01-29T08:57:42;95109.13;;;1.59;100.00
8049;BME280;20935;42.660;23.342;2023-01-29T09:00:27;95117.47;;;1.61;100.00
8049;BME280;20935;42.660;23.342;2023-01-29T09:03:13;95117.91;;;1.63;100.00
8049;BME280;20935;42.660;23.342;2023-01-29T09:05:58;95120.06;;;1.82;100.00
8049;BME280;20935;42.660;23.342;2023-01-29T09:08:43;95112.91;;;1.82;100.00
8049;BME280;20935;42.660;23.342;2023-01-29T09:11:29;95123.97;;;1.64;100.00
8049;BME280;20935;42.660;23.342;2023-01-29T09:14:16;95115.81;;;1.57;100.00
8049;BME280;20935;42.660;23.342;2023-01-29T09:17:01;95114.84;;;1.73;100.00
8049;BME280;20935;42.660;23.342;2023-01-29T09:19:47;95114.84;;;-143.54;100.00
8049;BME280;20935;42.660;23.342;2023-01-29T09:22:35;95119.72;;;1.96;100.00
8049;BME280;20935;42.660;23.342;2023-01-29T09:25:21;95117.06;;;1.96;100.00
8049;BME280;20935;42.660;23.342;2023-01-29T09:28:06;95110.38;;;1.98;100.00
8049;BME280;20935;42.660;23.342;2023-01-29T09:30:53;95113.28;;;1.60;100.00
8049;BME280;20935;42.660;23.342;2023-01-29T09:33:38;95113.66;;;1.71;100.00
8049;BME280;20935;42.660;23.342;2023-01-29T09:36:24;95111.03;;;1.95;100.00
8049;BME280;20935;42.660;23.342;2023-01-29T09:39:09;95115.63;;;1.74;100.00
8049;BME280;20935;42.660;23.342;2023-01-29T09:42:01;95102.44;;;1.86;100.00
8049;BME280;20935;42.660;23.342;2023-01-29T09:44:55;95106.72;;;1.78;100.00
8049;BME280;20935;42.660;23.342;2023-01-29T09:47:43;95101.25;;;2.08;100.00
8049;BME280;20935;42.660;23.342;2023-01-29T09:50:31;95094.16;;;1.75;100.00
8049;BME280;20935;42.660;23.342;2023-01-29T09:53:20;95096.06;;;1.99;100.00
8049;BME280;20935;42.660;23.342;2023-01-29T09:56:11;95096.41;;;1.40;100.00
8049;BME280;20935;42.660;23.342;2023-01-29T09:58:58;95107.38;;;1.75;100.00
8049;BME280;20935;42.660;23.342;2023-01-29T10:01:52;95097.03;;;1.70;100.00
8049;BME280;20935;42.660;23.342;2023-01-29T10:05:04;95103.09;;;1.71;100.00
8049;BME280;20935;42.660;23.342;2023-01-29T10:08:09;95104.44;;;1.89;100.00
8049;BME280;20935;42.660;23.342;2023-01-29T10:11:03;95082.84;;;1.63;100.00
8049;BME280;20935;42.660;23.342;2023-01-29T10:13:58;95093.75;;;1.85;100.00
8049;BME280;20935;42.660;23.342;2023-01-29T10:22:47;95083.72;;;1.67;100.00
8049;BME280;20935;42.660;23.342;2023-01-29T10:25:40;95076.88;;;1.54;100.00
8049;BME280;20935;42.660;23.342;2023-01-29T10:28:30;95075.59;;;1.72;100.00
8049;BME280;20935;42.660;23.342;2023-01-29T10:31:21;95071.41;;;1.59;100.00
8049;BME280;20935;42.660;23.342;2023-01-29T10:34:18;95069.75;;;1.66;100.00
8049;BME280;20935;42.660;23.342;2023-01-29T10:37:14;95064.34;;;1.51;100.00
8049;BME280;20935;42.660;23.342;2023-01-29T10:40:21;95055.22;;;1.48;100.00
8049;BME280;20935;42.660;23.342;2023-01-29T10:43:13;95077.03;;;1.69;100.00
8049;BME280;20935;42.660;23.342;2023-01-29T10:46:10;95072.41;;;1.78;100.00
8049;BME280;20935;42.660;23.342;2023-01-29T10:49:09;95072.41;;;1.78;100.00
8049;BME280;20935;42.660;23.342;2023-01-29T10:52:13;95067.75;;;1.63;100.00
8049;BME280;20935;42.660;23.342;2023-01-29T10:55:14;95060.19;;;1.74;100.00
8049;BME280;20935;42.660;23.342;2023-01-29T10:58:11;95066.78;;;1.68;100.00
8049;BME280;20935;42.660;23.342;2023-01-29T11:00:59;95065.81;;;1.84;100.00
8049;BME280;20935;42.660;23.342;2023-01-29T11:03:45;95060.75;;;1.79;100.00
8049;BME280;20935;42.660;23.342;2023-01-29T11:06:39;95065.38;;;1.70;100.00
8049;BME280;20935;42.660;23.342;2023-01-29T11:09:29;95057.44;;;1.58;100.00
8049;BME280;20935;42.660;23.342;2023-01-29T11:12:20;95048.09;;;1.61;100.00
8049;BME280;20935;42.660;23.342;2023-01-29T11:15:16;95052.94;;;1.59;100.00
8049;BME280;20935;42.660;23.342;2023-01-29T11:18:05;95045.69;;;1.92;100.00
8049;BME280;20935;42.660;23.342;2023-01-29T11:21:00;95044.47;;;1.77;100.00
8049;BME280;20935;42.660;23.342;2023-01-29T11:23:46;95050.75;;;1.85;100.00
8049;BME280;20935;42.660;23.342;2023-01-29T11:26:34;95035.47;;;1.78;100.00
8049;BME280;20935;42.660;23.342;2023-01-29T11:29:36;95032.47;;;2.04;100.00
8049;BME280;20935;42.660;23.342;2023-01-29T11:32:27;95036.44;;;1.98;100.00
8049;BME280;20935;42.660;23.342;2023-01-29T11:35:22;95033.13;;;2.13;100.00
8049;BME280;20935;42.660;23.342;2023-01-29T11:38:18;95023.88;;;2.07;100.00
8049;BME280;20935;42.660;23.342;2023-01-29T11:41:09;95019.94;;;2.13;100.00
8049;BME280;20935;42.660;23.342;2023-01-29T11:44:17;95020.56;;;2.22;100.00
8049;BME280;20935;42.660;23.342;2023-01-29T11:47:17;95009.31;;;2.38;100.00
8049;BME280;20935;42.660;23.342;2023-01-29T11:50:03;95012.94;;;2.33;100.00
8049;BME280;20935;42.660;23.342;2023-01-29T11:52:49;95019.53;;;2.39;100.00
8049;BME280;20935;42.660;23.342;2023-01-29T11:55:35;95012.13;;;2.57;100.00
8049;BME280;20935;42.660;23.342;2023-01-29T11:58:26;95005.59;;;2.26;100.00
8049;BME280;20935;42.660;23.342;2023-01-29T12:01:14;95014.03;;;2.44;100.00
8049;BME280;20935;42.660;23.342;2023-01-29T12:04:03;95010.06;;;2.50;100.00
8049;BME280;20935;42.660;23.342;2023-01-29T12:06:56;95001.50;;;2.29;100.00
8049;BME280;20935;42.660;23.342;2023-01-29T12:09:48;95008.03;;;2.59;100.00
8049;BME280;20935;42.660;23.342;2023-01-29T12:12:38;95000.28;;;2.39;100.00
8049;BME280;20935;42.660;23.342;2023-01-29T12:15:25;94998.09;;;2.28;100.00
8049;BME280;20935;42.660;23.342;2023-01-29T12:18:15;94994.69;;;2.28;100.00
8049;BME280;20935;42.660;23.342;2023-01-29T12:21:11;94999.94;;;2.40;100.00
8049;BME280;20935;42.660;23.342;2023-01-29T12:24:01;95003.84;;;2.30;100.00
8049;BME280;20935;42.660;23.342;2023-01-29T12:26:54;95003.16;;;2.33;100.00
8049;BME280;20935;42.660;23.342;2023-01-29T12:29:46;95006.72;;;2.13;100.00
8049;BME280;20935;42.660;23.342;2023-01-29T12:32:39;94991.22;;;2.00;100.00
8049;BME280;20935;42.660;23.342;2023-01-29T12:35:30;94998.66;;;2.34;100.00
8049;BME280;20935;42.660;23.342;2023-01-29T12:38:19;95012.56;;;2.19;100.00
8049;BME280;20935;42.660;23.342;2023-01-29T12:41:07;95021.44;;;2.39;100.00
8049;BME280;20935;42.660;23.342;2023-01-29T12:44:01;95002.78;;;2.75;100.00
8049;BME280;20935;42.660;23.342;2023-01-29T12:46:52;95007.78;;;2.36;100.00
8049;BME280;20935;42.660;23.342;2023-01-29T12:49:43;95004.94;;;2.29;100.00
8049;BME280;20935;42.660;23.342;2023-01-29T12:52:36;95003.50;;;2.20;100.00
8049;BME280;20935;42.660;23.342;2023-01-29T12:55:27;95025.88;;;2.22;100.00
8049;BME280;20935;42.660;23.342;2023-01-29T12:58:16;95008.59;;;2.13;100.00
8049;BME280;20935;42.660;23.342;2023-01-29T13:01:11;95008.44;;;2.33;100.00
8049;BME280;20935;42.660;23.342;2023-01-29T13:04:01;95001.13;;;2.15;100.00
8049;BME280;20935;42.660;23.342;2023-01-29T13:06:51;95000.34;;;2.14;100.00
8049;BME280;20935;42.660;23.342;2023-01-29T13:09:38;94995.25;;;2.21;100.00
8049;BME280;20935;42.660;23.342;2023-01-29T13:12:27;95000.75;;;2.16;100.00
8049;BME280;20935;42.660;23.342;2023-01-29T13:15:21;95006.03;;;2.28;100.00
8049;BME280;20935;42.660;23.342;2023-01-29T13:18:28;94998.41;;;2.27;100.00
8049;BME280;20935;42.660;23.342;2023-01-29T13:21:17;94995.94;;;2.18;100.00
8049;BME280;20935;42.660;23.342;2023-01-29T13:24:10;94999.06;;;2.36;100.00
8049;BME280;20935;42.660;23.342;2023-01-29T13:26:57;94991.75;;;2.05;100.00
8049;BME280;20935;42.660;23.342;2023-01-29T13:29:44;94993.72;;;2.20;100.00
8049;BME280;20935;42.660;23.342;2023-01-29T13:32:30;95003.53;;;2.08;100.00
8049;BME280;20935;42.660;23.342;2023-01-29T13:35:17;95009.34;;;2.13;100.00
8049;BME280;20935;42.660;23.342;2023-01-29T13:38:05;95018.34;;;2.36;100.00
8049;BME280;20935;42.660;23.342;2023-01-29T13:41:04;95019.69;;;2.18;100.00
8049;BME280;20935;42.660;23.342;2023-01-29T13:43:51;95020.72;;;2.02;100.00
8049;BME280;20935;42.660;23.342;2023-01-29T13:46:40;95017.47;;;2.20;100.00
8049;BME280;20935;42.660;23.342;2023-01-29T13:49:30;95023.66;;;2.12;100.00
8049;BME280;20935;42.660;23.342;2023-01-29T13:52:27;95024.13;;;2.02;100.00
8049;BME280;20935;42.660;23.342;2023-01-29T13:55:22;95031.78;;;2.07;100.00
8049;BME280;20935;42.660;23.342;2023-01-29T13:58:15;95032.81;;;2.03;100.00
8049;BME280;20935;42.660;23.342;2023-01-29T14:01:01;95026.84;;;1.57;100.00
8049;BME280;20935;42.660;23.342;2023-01-29T14:03:51;95026.56;;;1.83;100.00
8049;BME280;20935;42.660;23.342;2023-01-29T14:06:44;95026.09;;;1.69;100.00
8049;BME280;20935;42.660;23.342;2023-01-29T14:15:40;95033.03;;;1.85;100.00
8049;BME280;20935;42.660;23.342;2023-01-29T14:18:26;95037.97;;;1.51;100.00
8049;BME280;20935;42.660;23.342;2023-01-29T14:21:20;95051.19;;;1.63;100.00
8049;BME280;20935;42.660;23.342;2023-01-29T14:24:10;95045.25;;;1.66;100.00
8049;BME280;20935;42.660;23.342;2023-01-29T14:27:00;95053.16;;;1.90;100.00
8049;BME280;20935;42.660;23.342;2023-01-29T14:29:47;95075.38;;;1.77;100.00
8049;BME280;20935;42.660;23.342;2023-01-29T14:32:38;95053.69;;;1.83;100.00
8049;BME280;20935;42.660;23.342;2023-01-29T14:35:26;95066.00;;;1.55;100.00
8049;BME280;20935;42.660;23.342;2023-01-29T14:38:15;95059.97;;;1.67;100.00
8049;BME280;20935;42.660;23.342;2023-01-29T14:41:07;95061.72;;;1.63;100.00
8049;BME280;20935;42.660;23.342;2023-01-29T14:47:56;95056.47;;;1.75;100.00
8049;BME280;20935;42.660;23.342;2023-01-29T14:50:49;95057.38;;;1.34;100.00
8049;BME280;20935;42.660;23.342;2023-01-29T14:53:47;95059.97;;;1.67;100.00
8049;BME280;20935;42.660;23.342;2023-01-29T14:56:39;95056.97;;;1.56;100.00
8049;BME280;20935;42.660;23.342;2023-01-29T14:59:31;95056.88;;;1.65;100.00
8049;BME280;20935;42.660;23.342;2023-01-29T15:02:19;95058.09;;;1.55;100.00
8049;BME280;20935;42.660;23.342;2023-01-29T15:05:11;95066.44;;;1.57;100.00
8049;BME280;20935;42.660;23.342;2023-01-29T15:08:02;95055.72;;;1.29;100.00
8049;BME280;20935;42.660;23.342;2023-01-29T15:10:53;95061.47;;;1.56;100.00
8049;BME280;20935;42.660;23.342;2023-01-29T15:13:57;95065.66;;;1.45;100.00
8049;BME280;20935;42.660;23.342;2023-01-29T15:16:50;95064.53;;;1.33;100.00